sensor_id;sensor_type;location;lat;lon;timestamp;P1;durP1;ratioP1;P2;durP2;ratioP2
11100;SDS011;5604;50.722;7.078;2023-04-25T00:02:00;13.10;;;4.77;;
11100;SDS011;5604;50.722;7.078;2023-04-25T00:04:29;10.13;;;4.20;;
11100;SDS011;5604;50.722;7.078;2023-04-25T00:06:59;12.43;;;4.40;;
11100;SDS011;5604;50.722;7.078;2023-04-25T00:09:30;7.73;;;4.17;;
11100;SDS011;5604;50.722;7.078;2023-04-25T00:11:59;8.43;;;4.70;;
11100;SDS011;5604;50.722;7.078;2023-04-25T00:14:28;7.70;;;4.80;;
11100;SDS011;5604;50.722;7.078;2023-04-25T00:16:56;11.03;;;4.60;;
11100;SDS011;5604;50.722;7.078;2023-04-25T00:19:25;13.13;;;4.60;;
11100;SDS011;5604;50.722;7.078;2023-04-25T00:21:54;8.87;;;4.77;;
11100;SDS011;5604;50.722;7.078;2023-04-25T00:24:22;9.33;;;4.90;;
11100;SDS011;5604;50.722;7.078;2023-04-25T00:26:52;9.43;;;4.93;;
11100;SDS011;5604;50.722;7.078;2023-04-25T00:29:20;8.03;;;4.43;;
11100;SDS011;5604;50.722;7.078;2023-04-25T00:31:48;11.87;;;5.50;;
11100;SDS011;5604;50.722;7.078;2023-04-25T00:34:16;7.93;;;5.07;;
11100;SDS011;5604;50.722;7.078;2023-04-25T00:36:44;9.47;;;4.87;;
11100;SDS011;5604;50.722;7.078;2023-04-25T00:39:12;10.63;;;5.03;;
11100;SDS011;5604;50.722;7.078;2023-04-25T00:41:40;9.70;;;4.67;;
11100;SDS011;5604;50.722;7.078;2023-04-25T00:44:10;12.00;;;5.10;;
11100;SDS011;5604;50.722;7.078;2023-04-25T00:46:39;12.40;;;6.90;;
11100;SDS011;5604;50.722;7.078;2023-04-25T00:49:08;9.60;;;5.20;;
11100;SDS011;5604;50.722;7.078;2023-04-25T00:51:42;9.77;;;5.03;;
11100;SDS011;5604;50.722;7.078;2023-04-25T00:54:10;9.67;;;4.93;;
11100;SDS011;5604;50.722;7.078;2023-04-25T00:56:38;11.57;;;5.70;;
11100;SDS011;5604;50.722;7.078;2023-04-25T00:59:07;9.23;;;5.10;;
11100;SDS011;5604;50.722;7.078;2023-04-25T01:01:36;8.07;;;5.10;;
11100;SDS011;5604;50.722;7.078;2023-04-25T01:04:06;10.53;;;4.90;;
11100;SDS011;5604;50.722;7.078;2023-04-25T01:06:35;13.63;;;5.87;;
11100;SDS011;5604;50.722;7.078;2023-04-25T01:09:03;9.67;;;5.50;;
11100;SDS011;5604;50.722;7.078;2023-04-25T01:11:32;9.30;;;4.80;;
11100;SDS011;5604;50.722;7.078;2023-04-25T01:14:00;8.80;;;5.20;;
11100;SDS011;5604;50.722;7.078;2023-04-25T01:16:28;11.33;;;5.17;;
11100;SDS011;5604;50.722;7.078;2023-04-25T01:18:58;10.33;;;5.20;;
11100;SDS011;5604;50.722;7.078;2023-04-25T01:21:31;8.00;;;5.70;;
11100;SDS011;5604;50.722;7.078;2023-04-25T01:23:59;7.80;;;4.93;;
11100;SDS011;5604;50.722;7.078;2023-04-25T01:26:27;11.30;;;5.70;;
11100;SDS011;5604;50.722;7.078;2023-04-25T01:28:56;10.80;;;5.57;;
11100;SDS011;5604;50.722;7.078;2023-04-25T01:31:25;11.17;;;5.30;;
11100;SDS011;5604;50.722;7.078;2023-04-25T01:33:53;11.23;;;5.60;;
11100;SDS011;5604;50.722;7.078;2023-04-25T01:36:21;10.97;;;5.87;;
11100;SDS011;5604;50.722;7.078;2023-04-25T01:38:51;11.43;;;5.90;;
11100;SDS011;5604;50.722;7.078;2023-04-25T01:41:21;13.67;;;6.47;;
11100;SDS011;5604;50.722;7.078;2023-04-25T01:43:50;12.97;;;5.93;;
11100;SDS011;5604;50.722;7.078;2023-04-25T01:46:18;17.73;;;6.17;;
11100;SDS011;5604;50.722;7.078;2023-04-25T01:48:46;12.70;;;6.27;;
11100;SDS011;5604;50.722;7.078;2023-04-25T01:51:14;11.13;;;6.40;;
11100;SDS011;5604;50.722;7.078;2023-04-25T01:53:43;11.43;;;6.07;;
11100;SDS011;5604;50.722;7.078;2023-04-25T01:56:12;12.50;;;6.03;;
11100;SDS011;5604;50.722;7.078;2023-04-25T01:58:41;10.27;;;5.77;;
11100;SDS011;5604;50.722;7.078;2023-04-25T02:01:27;10.83;;;6.47;;
11100;SDS011;5604;50.722;7.078;2023-04-25T02:04:15;11.63;;;5.70;;
11100;SDS011;5604;50.722;7.078;2023-04-25T02:06:43;12.80;;;6.03;;
11100;SDS011;5604;50.722;7.078;2023-04-25T02:09:12;13.90;;;6.40;;
11100;SDS011;5604;50.722;7.078;2023-04-25T02:11:46;12.40;;;5.93;;
11100;SDS011;5604;50.722;7.078;2023-04-25T02:14:32;10.20;;;6.00;;
11100;SDS011;5604;50.722;7.078;2023-04-25T02:17:05;11.20;;;5.70;;
11100;SDS011;5604;50.722;7.078;2023-04-25T02:19:33;10.30;;;6.10;;
11100;SDS011;5604;50.722;7.078;2023-04-25T02:22:01;14.77;;;6.40;;
11100;SDS011;5604;50.722;7.078;2023-04-25T02:24:30;12.37;;;6.30;;
11100;SDS011;5604;50.722;7.078;2023-04-25T02:27:01;11.30;;;5.73;;
11100;SDS011;5604;50.722;7.078;2023-04-25T02:29:29;13.63;;;6.37;;
11100;SDS011;5604;50.722;7.078;2023-04-25T02:31:58;13.90;;;6.37;;
11100;SDS011;5604;50.722;7.078;2023-04-25T02:34:26;11.97;;;6.57;;
11100;SDS011;5604;50.722;7.078;2023-04-25T02:36:54;8.77;;;5.10;;
11100;SDS011;5604;50.722;7.078;2023-04-25T02:39:23;14.70;;;6.90;;
11100;SDS011;5604;50.722;7.078;2023-04-25T02:41:51;16.57;;;6.60;;
11100;SDS011;5604;50.722;7.078;2023-04-25T02:44:22;13.43;;;6.73;;
11100;SDS011;5604;50.722;7.078;2023-04-25T02:46:50;15.57;;;6.60;;
11100;SDS011;5604;50.722;7.078;2023-04-25T02:49:18;13.50;;;6.80;;
11100;SDS011;5604;50.722;7.078;2023-04-25T02:51:46;13.40;;;6.93;;
11100;SDS011;5604;50.722;7.078;2023-04-25T02:54:15;15.27;;;6.47;;
11100;SDS011;5604;50.722;7.078;2023-04-25T02:56:46;14.20;;;6.80;;
11100;SDS011;5604;50.722;7.078;2023-04-25T02:59:22;12.77;;;7.27;;
11100;SDS011;5604;50.722;7.078;2023-04-25T03:01:50;17.23;;;6.70;;
11100;SDS011;5604;50.722;7.078;2023-04-25T03:04:19;10.83;;;6.10;;
11100;SDS011;5604;50.722;7.078;2023-04-25T03:06:47;13.83;;;6.60;;
11100;SDS011;5604;50.722;7.078;2023-04-25T03:09:16;11.83;;;6.77;;
11100;SDS011;5604;50.722;7.078;2023-04-25T03:11:44;15.67;;;6.60;;
11100;SDS011;5604;50.722;7.078;2023-04-25T03:14:13;16.97;;;6.43;;
11100;SDS011;5604;50.722;7.078;2023-04-25T03:16:43;15.20;;;6.90;;
11100;SDS011;5604;50.722;7.078;2023-04-25T03:19:11;16.03;;;7.27;;
11100;SDS011;5604;50.722;7.078;2023-04-25T03:21:42;14.27;;;6.97;;
11100;SDS011;5604;50.722;7.078;2023-04-25T03:24:12;13.20;;;6.37;;
11100;SDS011;5604;50.722;7.078;2023-04-25T03:26:40;12.57;;;6.37;;
11100;SDS011;5604;50.722;7.078;2023-04-25T03:29:08;13.37;;;5.90;;
11100;SDS011;5604;50.722;7.078;2023-04-25T03:31:38;16.53;;;6.90;;
11100;SDS011;5604;50.722;7.078;2023-04-25T03:34:08;15.17;;;7.03;;
11100;SDS011;5604;50.722;7.078;2023-04-25T03:36:36;14.10;;;6.57;;
11100;SDS011;5604;50.722;7.078;2023-04-25T03:39:07;13.43;;;6.60;;
11100;SDS011;5604;50.722;7.078;2023-04-25T03:41:37;10.90;;;6.67;;
11100;SDS011;5604;50.722;7.078;2023-04-25T03:44:11;10.90;;;5.73;;
11100;SDS011;5604;50.722;7.078;2023-04-25T03:46:39;13.00;;;6.47;;
11100;SDS011;5604;50.722;7.078;2023-04-25T03:49:09;14.90;;;6.30;;
11100;SDS011;5604;50.722;7.078;2023-04-25T03:51:55;13.37;;;6.27;;
11100;SDS011;5604;50.722;7.078;2023-04-25T03:54:24;12.17;;;6.47;;
11100;SDS011;5604;50.722;7.078;2023-04-25T03:57:02;16.87;;;6.63;;
11100;SDS011;5604;50.722;7.078;2023-04-25T03:59:33;12.43;;;6.57;;
11100;SDS011;5604;50.722;7.078;2023-04-25T04:02:02;16.20;;;7.20;;
11100;SDS011;5604;50.722;7.078;2023-04-25T04:04:34;16.37;;;7.03;;
11100;SDS011;5604;50.722;7.078;2023-04-25T04:07:03;13.73;;;6.87;;
11100;SDS011;5604;50.722;7.078;2023-04-25T04:09:35;18.20;;;7.07;;
11100;SDS011;5604;50.722;7.078;2023-04-25T04:12:09;17.50;;;6.57;;
11100;SDS011;5604;50.722;7.078;2023-04-25T04:14:39;11.77;;;6.60;;
11100;SDS011;5604;50.722;7.078;2023-04-25T04:17:08;13.97;;;6.67;;
11100;SDS011;5604;50.722;7.078;2023-04-25T04:19:38;10.07;;;6.73;;
11100;SDS011;5604;50.722;7.078;2023-04-25T04:22:13;14.03;;;6.70;;
11100;SDS011;5604;50.722;7.078;2023-04-25T04:24:41;13.33;;;6.53;;
11100;SDS011;5604;50.722;7.078;2023-04-25T04:27:12;12.77;;;6.93;;
11100;SDS011;5604;50.722;7.078;2023-04-25T04:29:49;17.50;;;7.70;;
11100;SDS011;5604;50.722;7.078;2023-04-25T04:32:36;12.53;;;7.30;;
11100;SDS011;5604;50.722;7.078;2023-04-25T04:35:06;12.47;;;6.47;;
11100;SDS011;5604;50.722;7.078;2023-04-25T04:37:38;10.93;;;6.20;;
11100;SDS011;5604;50.722;7.078;2023-04-25T04:40:08;12.97;;;6.83;;
11100;SDS011;5604;50.722;7.078;2023-04-25T04:43:00;15.23;;;7.27;;
11100;SDS011;5604;50.722;7.078;2023-04-25T04:45:49;12.47;;;6.63;;
11100;SDS011;5604;50.722;7.078;2023-04-25T04:48:31;16.63;;;6.63;;
11100;SDS011;5604;50.722;7.078;2023-04-25T04:51:17;11.13;;;6.97;;
11100;SDS011;5604;50.722;7.078;2023-04-25T04:53:58;15.70;;;6.37;;
11100;SDS011;5604;50.722;7.078;2023-04-25T04:56:54;18.13;;;7.30;;
11100;SDS011;5604;50.722;7.078;2023-04-25T04:59:35;13.13;;;7.03;;
11100;SDS011;5604;50.722;7.078;2023-04-25T05:02:26;14.07;;;6.43;;
11100;SDS011;5604;50.722;7.078;2023-04-25T05:05:23;13.07;;;6.90;;
11100;SDS011;5604;50.722;7.078;2023-04-25T05:07:58;11.57;;;6.67;;
11100;SDS011;5604;50.722;7.078;2023-04-25T05:10:48;13.67;;;6.67;;
11100;SDS011;5604;50.722;7.078;2023-04-25T05:13:36;14.23;;;6.63;;
11100;SDS011;5604;50.722;7.078;2023-04-25T05:16:17;11.93;;;6.50;;
11100;SDS011;5604;50.722;7.078;2023-04-25T05:19:12;14.83;;;7.57;;
11100;SDS011;5604;50.722;7.078;2023-04-25T05:22:03;15.83;;;7.00;;
11100;SDS011;5604;50.722;7.078;2023-04-25T05:24:51;15.17;;;6.97;;
11100;SDS011;5604;50.722;7.078;2023-04-25T05:27:40;13.83;;;6.57;;
11100;SDS011;5604;50.722;7.078;2023-04-25T05:30:26;14.30;;;6.90;;
11100;SDS011;5604;50.722;7.078;2023-04-25T05:33:05;16.23;;;6.60;;
11100;SDS011;5604;50.722;7.078;2023-04-25T05:35:34;16.83;;;6.33;;
11100;SDS011;5604;50.722;7.078;2023-04-25T05:38:02;19.10;;;7.13;;
11100;SDS011;5604;50.722;7.078;2023-04-25T05:41:06;18.60;;;6.60;;
11100;SDS011;5604;50.722;7.078;2023-04-25T05:43:41;18.37;;;7.53;;
11100;SDS011;5604;50.722;7.078;2023-04-25T05:46:22;20.40;;;6.93;;
11100;SDS011;5604;50.722;7.078;2023-04-25T05:49:04;12.43;;;6.73;;
11100;SDS011;5604;50.722;7.078;2023-04-25T05:51:51;13.23;;;5.67;;
11100;SDS011;5604;50.722;7.078;2023-04-25T05:54:29;18.00;;;7.07;;
11100;SDS011;5604;50.722;7.078;2023-04-25T05:57:00;15.77;;;6.87;;
11100;SDS011;5604;50.722;7.078;2023-04-25T05:59:29;11.43;;;6.90;;
11100;SDS011;5604;50.722;7.078;2023-04-25T06:01:57;15.97;;;7.07;;
11100;SDS011;5604;50.722;7.078;2023-04-25T06:04:28;14.33;;;6.93;;
11100;SDS011;5604;50.722;7.078;2023-04-25T06:06:57;18.20;;;6.93;;
11100;SDS011;5604;50.722;7.078;2023-04-25T06:09:26;16.00;;;6.60;;
11100;SDS011;5604;50.722;7.078;2023-04-25T06:11:54;13.50;;;7.10;;
11100;SDS011;5604;50.722;7.078;2023-04-25T06:14:24;15.60;;;7.03;;
11100;SDS011;5604;50.722;7.078;2023-04-25T06:16:55;15.20;;;6.53;;
11100;SDS011;5604;50.722;7.078;2023-04-25T06:19:23;17.20;;;7.10;;
11100;SDS011;5604;50.722;7.078;2023-04-25T06:21:51;19.07;;;6.63;;
11100;SDS011;5604;50.722;7.078;2023-04-25T06:24:19;18.93;;;6.63;;
11100;SDS011;5604;50.722;7.078;2023-04-25T06:26:49;21.13;;;7.27;;
11100;SDS011;5604;50.722;7.078;2023-04-25T06:29:17;14.23;;;6.67;;
11100;SDS011;5604;50.722;7.078;2023-04-25T06:31:47;20.50;;;7.47;;
11100;SDS011;5604;50.722;7.078;2023-04-25T06:34:15;11.43;;;6.20;;
11100;SDS011;5604;50.722;7.078;2023-04-25T06:36:44;14.77;;;6.40;;
11100;SDS011;5604;50.722;7.078;2023-04-25T06:39:14;13.93;;;7.20;;
11100;SDS011;5604;50.722;7.078;2023-04-25T06:41:43;12.57;;;5.87;;
11100;SDS011;5604;50.722;7.078;2023-04-25T06:44:34;15.63;;;6.53;;
11100;SDS011;5604;50.722;7.078;2023-04-25T06:47:05;18.10;;;6.17;;
11100;SDS011;5604;50.722;7.078;2023-04-25T06:49:33;20.30;;;6.97;;
11100;SDS011;5604;50.722;7.078;2023-04-25T06:52:02;19.57;;;6.77;;
11100;SDS011;5604;50.722;7.078;2023-04-25T06:54:30;20.63;;;7.03;;
11100;SDS011;5604;50.722;7.078;2023-04-25T06:57:04;15.40;;;6.70;;
11100;SDS011;5604;50.722;7.078;2023-04-25T06:59:32;13.83;;;6.40;;
11100;SDS011;5604;50.722;7.078;2023-04-25T07:02:01;17.60;;;6.93;;
11100;SDS011;5604;50.722;7.078;2023-04-25T07:04:31;15.80;;;6.17;;
11100;SDS011;5604;50.722;7.078;2023-04-25T07:07:01;20.17;;;6.77;;
11100;SDS011;5604;50.722;7.078;2023-04-25T07:09:40;19.40;;;6.47;;
11100;SDS011;5604;50.722;7.078;2023-04-25T07:12:08;21.37;;;6.97;;
11100;SDS011;5604;50.722;7.078;2023-04-25T07:14:37;19.50;;;7.33;;
11100;SDS011;5604;50.722;7.078;2023-04-25T07:17:06;13.37;;;5.40;;
11100;SDS011;5604;50.722;7.078;2023-04-25T07:19:36;17.83;;;6.77;;
11100;SDS011;5604;50.722;7.078;2023-04-25T07:22:07;14.53;;;6.03;;
11100;SDS011;5604;50.722;7.078;2023-04-25T07:24:38;18.97;;;6.40;;
11100;SDS011;5604;50.722;7.078;2023-04-25T07:27:07;21.73;;;5.40;;
11100;SDS011;5604;50.722;7.078;2023-04-25T07:29:50;12.53;;;5.63;;
11100;SDS011;5604;50.722;7.078;2023-04-25T07:32:21;14.87;;;5.43;;
11100;SDS011;5604;50.722;7.078;2023-04-25T07:34:51;17.23;;;5.83;;
11100;SDS011;5604;50.722;7.078;2023-04-25T07:37:19;25.40;;;6.30;;
11100;SDS011;5604;50.722;7.078;2023-04-25T07:40:00;16.07;;;5.47;;
11100;SDS011;5604;50.722;7.078;2023-04-25T07:42:31;11.63;;;4.80;;
11100;SDS011;5604;50.722;7.078;2023-04-25T07:45:00;12.50;;;4.67;;
11100;SDS011;5604;50.722;7.078;2023-04-25T07:47:29;11.00;;;4.93;;
11100;SDS011;5604;50.722;7.078;2023-04-25T07:49:58;11.63;;;4.53;;
11100;SDS011;5604;50.722;7.078;2023-04-25T07:52:28;11.80;;;4.17;;
11100;SDS011;5604;50.722;7.078;2023-04-25T07:55:03;12.10;;;4.30;;
11100;SDS011;5604;50.722;7.078;2023-04-25T07:57:41;16.43;;;4.17;;
11100;SDS011;5604;50.722;7.078;2023-04-25T08:00:09;13.73;;;4.00;;
11100;SDS011;5604;50.722;7.078;2023-04-25T08:02:49;11.67;;;3.70;;
11100;SDS011;5604;50.722;7.078;2023-04-25T08:05:22;11.70;;;4.40;;
11100;SDS011;5604;50.722;7.078;2023-04-25T08:07:58;13.57;;;4.50;;
11100;SDS011;5604;50.722;7.078;2023-04-25T08:10:27;12.33;;;3.90;;
11100;SDS011;5604;50.722;7.078;2023-04-25T08:12:55;12.30;;;3.97;;
11100;SDS011;5604;50.722;7.078;2023-04-25T08:15:23;9.87;;;3.83;;
11100;SDS011;5604;50.722;7.078;2023-04-25T08:17:52;14.73;;;3.80;;
11100;SDS011;5604;50.722;7.078;2023-04-25T08:20:21;11.90;;;3.97;;
11100;SDS011;5604;50.722;7.078;2023-04-25T08:22:52;10.40;;;3.70;;
11100;SDS011;5604;50.722;7.078;2023-04-25T08:25:29;8.70;;;3.53;;
11100;SDS011;5604;50.722;7.078;2023-04-25T08:27:57;9.17;;;3.40;;
11100;SDS011;5604;50.722;7.078;2023-04-25T08:30:26;12.77;;;3.67;;
11100;SDS011;5604;50.722;7.078;2023-04-25T08:32:54;9.50;;;3.30;;
11100;SDS011;5604;50.722;7.078;2023-04-25T08:35:45;23.07;;;8.63;;
11100;SDS011;5604;50.722;7.078;2023-04-25T08:38:14;10.33;;;4.40;;
11100;SDS011;5604;50.722;7.078;2023-04-25T08:40:43;8.40;;;3.57;;
11100;SDS011;5604;50.722;7.078;2023-04-25T08:43:16;12.57;;;4.20;;
11100;SDS011;5604;50.722;7.078;2023-04-25T08:45:47;10.03;;;3.63;;
11100;SDS011;5604;50.722;7.078;2023-04-25T08:48:38;9.17;;;3.17;;
11100;SDS011;5604;50.722;7.078;2023-04-25T08:51:09;12.67;;;3.67;;
11100;SDS011;5604;50.722;7.078;2023-04-25T08:53:38;12.30;;;3.90;;
11100;SDS011;5604;50.722;7.078;2023-04-25T08:56:09;8.63;;;3.43;;
11100;SDS011;5604;50.722;7.078;2023-04-25T08:58:39;12.53;;;3.63;;
11100;SDS011;5604;50.722;7.078;2023-04-25T09:01:08;8.03;;;3.40;;
11100;SDS011;5604;50.722;7.078;2023-04-25T09:03:44;8.77;;;3.37;;
11100;SDS011;5604;50.722;7.078;2023-04-25T09:06:15;10.13;;;3.27;;
11100;SDS011;5604;50.722;7.078;2023-04-25T09:08:44;12.37;;;3.80;;
11100;SDS011;5604;50.722;7.078;2023-04-25T09:11:12;9.77;;;4.37;;
11100;SDS011;5604;50.722;7.078;2023-04-25T09:13:41;12.13;;;3.93;;
11100;SDS011;5604;50.722;7.078;2023-04-25T09:16:25;8.80;;;3.47;;
11100;SDS011;5604;50.722;7.078;2023-04-25T09:19:20;10.40;;;2.83;;
11100;SDS011;5604;50.722;7.078;2023-04-25T09:22:13;6.30;;;2.13;;
11100;SDS011;5604;50.722;7.078;2023-04-25T09:24:42;6.40;;;2.63;;
11100;SDS011;5604;50.722;7.078;2023-04-25T09:27:13;8.17;;;3.43;;
11100;SDS011;5604;50.722;7.078;2023-04-25T09:29:49;8.20;;;2.80;;
11100;SDS011;5604;50.722;7.078;2023-04-25T09:32:24;13.10;;;3.17;;
11100;SDS011;5604;50.722;7.078;2023-04-25T09:34:57;6.40;;;2.90;;
11100;SDS011;5604;50.722;7.078;2023-04-25T09:37:29;9.17;;;2.90;;
11100;SDS011;5604;50.722;7.078;2023-04-25T09:40:18;7.10;;;2.67;;
11100;SDS011;5604;50.722;7.078;2023-04-25T09:42:55;9.17;;;2.80;;
11100;SDS011;5604;50.722;7.078;2023-04-25T09:45:24;7.90;;;3.13;;
11100;SDS011;5604;50.722;7.078;2023-04-25T09:47:55;5.23;;;3.00;;
11100;SDS011;5604;50.722;7.078;2023-04-25T09:50:27;5.07;;;2.57;;
11100;SDS011;5604;50.722;7.078;2023-04-25T09:53:05;6.57;;;2.93;;
11100;SDS011;5604;50.722;7.078;2023-04-25T09:55:54;5.30;;;2.57;;
11100;SDS011;5604;50.722;7.078;2023-04-25T09:58:25;7.53;;;3.33;;
11100;SDS011;5604;50.722;7.078;2023-04-25T10:00:59;7.50;;;3.17;;
11100;SDS011;5604;50.722;7.078;2023-04-25T10:03:41;10.47;;;3.23;;
11100;SDS011;5604;50.722;7.078;2023-04-25T10:06:26;8.93;;;3.20;;
11100;SDS011;5604;50.722;7.078;2023-04-25T10:09:06;7.70;;;2.80;;
11100;SDS011;5604;50.722;7.078;2023-04-25T10:11:36;7.10;;;3.00;;
11100;SDS011;5604;50.722;7.078;2023-04-25T10:14:04;7.07;;;3.07;;
11100;SDS011;5604;50.722;7.078;2023-04-25T10:16:36;9.20;;;3.43;;
11100;SDS011;5604;50.722;7.078;2023-04-25T10:19:14;6.70;;;3.07;;
11100;SDS011;5604;50.722;7.078;2023-04-25T10:21:44;6.57;;;2.93;;
11100;SDS011;5604;50.722;7.078;2023-04-25T10:24:17;5.53;;;2.50;;
11100;SDS011;5604;50.722;7.078;2023-04-25T10:26:45;7.47;;;2.70;;
11100;SDS011;5604;50.722;7.078;2023-04-25T10:29:16;7.93;;;2.30;;
11100;SDS011;5604;50.722;7.078;2023-04-25T10:31:49;5.70;;;2.70;;
11100;SDS011;5604;50.722;7.078;2023-04-25T10:34:18;9.70;;;2.60;;
11100;SDS011;5604;50.722;7.078;2023-04-25T10:36:50;9.00;;;3.07;;
11100;SDS011;5604;50.722;7.078;2023-04-25T10:39:24;6.60;;;2.77;;
11100;SDS011;5604;50.722;7.078;2023-04-25T10:41:55;12.47;;;3.67;;
11100;SDS011;5604;50.722;7.078;2023-04-25T10:44:26;11.10;;;3.87;;
11100;SDS011;5604;50.722;7.078;2023-04-25T10:46:54;7.57;;;3.00;;
11100;SDS011;5604;50.722;7.078;2023-04-25T10:49:33;9.73;;;4.13;;
11100;SDS011;5604;50.722;7.078;2023-04-25T10:52:19;7.57;;;3.13;;
11100;SDS011;5604;50.722;7.078;2023-04-25T10:54:54;8.47;;;3.40;;
11100;SDS011;5604;50.722;7.078;2023-04-25T10:57:29;5.97;;;2.67;;
11100;SDS011;5604;50.722;7.078;2023-04-25T11:00:13;11.13;;;3.73;;
11100;SDS011;5604;50.722;7.078;2023-04-25T11:02:44;9.43;;;2.97;;
11100;SDS011;5604;50.722;7.078;2023-04-25T11:05:33;6.77;;;2.90;;
11100;SDS011;5604;50.722;7.078;2023-04-25T11:08:22;9.93;;;3.30;;
11100;SDS011;5604;50.722;7.078;2023-04-25T11:11:01;7.00;;;2.80;;
11100;SDS011;5604;50.722;7.078;2023-04-25T11:13:29;9.57;;;2.93;;
11100;SDS011;5604;50.722;7.078;2023-04-25T11:15:58;9.23;;;3.10;;
11100;SDS011;5604;50.722;7.078;2023-04-25T11:18:40;7.37;;;2.50;;
11100;SDS011;5604;50.722;7.078;2023-04-25T11:21:08;6.87;;;2.43;;
11100;SDS011;5604;50.722;7.078;2023-04-25T11:23:37;6.87;;;3.10;;
11100;SDS011;5604;50.722;7.078;2023-04-25T11:26:07;7.77;;;3.20;;
11100;SDS011;5604;50.722;7.078;2023-04-25T11:28:35;7.83;;;2.87;;
11100;SDS011;5604;50.722;7.078;2023-04-25T11:31:03;7.63;;;3.17;;
11100;SDS011;5604;50.722;7.078;2023-04-25T11:33:32;5.77;;;2.80;;
11100;SDS011;5604;50.722;7.078;2023-04-25T11:36:00;8.30;;;3.17;;
11100;SDS011;5604;50.722;7.078;2023-04-25T11:38:28;7.63;;;2.90;;
11100;SDS011;5604;50.722;7.078;2023-04-25T11:40:56;8.20;;;3.07;;
11100;SDS011;5604;50.722;7.078;2023-04-25T11:43:26;10.10;;;2.80;;
11100;SDS011;5604;50.722;7.078;2023-04-25T11:45:54;7.93;;;2.90;;
11100;SDS011;5604;50.722;7.078;2023-04-25T11:48:22;7.17;;;2.97;;
11100;SDS011;5604;50.722;7.078;2023-04-25T11:50:53;9.57;;;3.63;;
11100;SDS011;5604;50.722;7.078;2023-04-25T11:53:21;7.70;;;2.97;;
11100;SDS011;5604;50.722;7.078;2023-04-25T11:55:51;7.03;;;3.50;;
11100;SDS011;5604;50.722;7.078;2023-04-25T11:58:21;8.30;;;2.90;;
11100;SDS011;5604;50.722;7.078;2023-04-25T12:00:50;11.73;;;3.27;;
11100;SDS011;5604;50.722;7.078;2023-04-25T12:03:18;8.53;;;3.07;;
11100;SDS011;5604;50.722;7.078;2023-04-25T12:05:48;7.10;;;3.23;;
11100;SDS011;5604;50.722;7.078;2023-04-25T12:08:18;6.87;;;2.87;;
11100;SDS011;5604;50.722;7.078;2023-04-25T12:10:46;7.73;;;2.40;;
11100;SDS011;5604;50.722;7.078;2023-04-25T12:13:19;6.07;;;2.33;;
11100;SDS011;5604;50.722;7.078;2023-04-25T12:15:48;7.73;;;2.27;;
11100;SDS011;5604;50.722;7.078;2023-04-25T12:18:19;8.87;;;2.53;;
11100;SDS011;5604;50.722;7.078;2023-04-25T12:20:48;4.83;;;2.50;;
11100;SDS011;5604;50.722;7.078;2023-04-25T12:23:16;7.83;;;2.67;;
11100;SDS011;5604;50.722;7.078;2023-04-25T12:25:53;5.20;;;2.10;;
11100;SDS011;5604;50.722;7.078;2023-04-25T12:28:21;8.13;;;2.37;;
11100;SDS011;5604;50.722;7.078;2023-04-25T12:30:54;5.17;;;2.20;;
11100;SDS011;5604;50.722;7.078;2023-04-25T12:33:25;7.17;;;2.43;;
11100;SDS011;5604;50.722;7.078;2023-04-25T12:35:54;7.83;;;2.30;;
11100;SDS011;5604;50.722;7.078;2023-04-25T12:38:23;7.30;;;2.30;;
11100;SDS011;5604;50.722;7.078;2023-04-25T12:40:52;8.53;;;3.30;;
11100;SDS011;5604;50.722;7.078;2023-04-25T12:43:21;5.80;;;2.53;;
11100;SDS011;5604;50.722;7.078;2023-04-25T12:45:49;9.10;;;2.70;;
11100;SDS011;5604;50.722;7.078;2023-04-25T12:48:18;5.57;;;2.40;;
11100;SDS011;5604;50.722;7.078;2023-04-25T12:50:48;6.10;;;2.50;;
11100;SDS011;5604;50.722;7.078;2023-04-25T12:53:17;9.67;;;3.37;;
11100;SDS011;5604;50.722;7.078;2023-04-25T12:55:46;6.97;;;2.80;;
11100;SDS011;5604;50.722;7.078;2023-04-25T12:58:14;6.10;;;2.57;;
11100;SDS011;5604;50.722;7.078;2023-04-25T13:00:44;6.47;;;2.57;;
11100;SDS011;5604;50.722;7.078;2023-04-25T13:03:12;6.10;;;2.53;;
11100;SDS011;5604;50.722;7.078;2023-04-25T13:05:41;6.47;;;2.90;;
11100;SDS011;5604;50.722;7.078;2023-04-25T13:08:11;5.33;;;2.27;;
11100;SDS011;5604;50.722;7.078;2023-04-25T13:10:39;6.33;;;2.93;;
11100;SDS011;5604;50.722;7.078;2023-04-25T13:13:07;7.37;;;2.23;;
11100;SDS011;5604;50.722;7.078;2023-04-25T13:15:35;5.23;;;2.43;;
11100;SDS011;5604;50.722;7.078;2023-04-25T13:18:04;9.53;;;2.40;;
11100;SDS011;5604;50.722;7.078;2023-04-25T13:20:32;4.77;;;2.23;;
11100;SDS011;5604;50.722;7.078;2023-04-25T13:23:00;7.97;;;2.27;;
11100;SDS011;5604;50.722;7.078;2023-04-25T13:25:30;6.53;;;3.20;;
11100;SDS011;5604;50.722;7.078;2023-04-25T13:27:58;3.57;;;2.23;;
11100;SDS011;5604;50.722;7.078;2023-04-25T13:30:26;6.73;;;3.23;;
11100;SDS011;5604;50.722;7.078;2023-04-25T13:32:54;7.63;;;2.80;;
11100;SDS011;5604;50.722;7.078;2023-04-25T13:35:23;5.60;;;2.70;;
11100;SDS011;5604;50.722;7.078;2023-04-25T13:37:52;5.47;;;2.60;;
11100;SDS011;5604;50.722;7.078;2023-04-25T13:40:20;6.27;;;2.40;;
11100;SDS011;5604;50.722;7.078;2023-04-25T13:42:52;9.13;;;2.57;;
11100;SDS011;5604;50.722;7.078;2023-04-25T13:45:20;6.97;;;2.63;;
11100;SDS011;5604;50.722;7.078;2023-04-25T13:47:48;5.77;;;2.27;;
11100;SDS011;5604;50.722;7.078;2023-04-25T13:50:17;7.87;;;2.77;;
11100;SDS011;5604;50.722;7.078;2023-04-25T13:52:45;4.40;;;2.40;;
11100;SDS011;5604;50.722;7.078;2023-04-25T13:55:14;3.43;;;1.90;;
11100;SDS011;5604;50.722;7.078;2023-04-25T13:57:42;5.53;;;2.30;;
11100;SDS011;5604;50.722;7.078;2023-04-25T14:00:12;7.30;;;2.50;;
11100;SDS011;5604;50.722;7.078;2023-04-25T14:02:47;14.00;;;3.33;;
11100;SDS011;5604;50.722;7.078;2023-04-25T14:05:16;4.83;;;2.70;;
11100;SDS011;5604;50.722;7.078;2023-04-25T14:07:44;8.93;;;3.10;;
11100;SDS011;5604;50.722;7.078;2023-04-25T14:10:12;5.87;;;2.63;;
11100;SDS011;5604;50.722;7.078;2023-04-25T14:12:41;5.37;;;2.40;;
11100;SDS011;5604;50.722;7.078;2023-04-25T14:15:09;5.77;;;2.33;;
11100;SDS011;5604;50.722;7.078;2023-04-25T14:17:39;8.30;;;2.73;;
11100;SDS011;5604;50.722;7.078;2023-04-25T14:20:08;5.77;;;2.60;;
11100;SDS011;5604;50.722;7.078;2023-04-25T14:22:37;5.00;;;2.47;;
11100;SDS011;5604;50.722;7.078;2023-04-25T14:25:09;5.80;;;2.60;;
11100;SDS011;5604;50.722;7.078;2023-04-25T14:27:37;6.30;;;2.57;;
11100;SDS011;5604;50.722;7.078;2023-04-25T14:30:06;7.20;;;3.03;;
11100;SDS011;5604;50.722;7.078;2023-04-25T14:32:36;6.30;;;2.20;;
11100;SDS011;5604;50.722;7.078;2023-04-25T14:35:06;7.50;;;2.30;;
11100;SDS011;5604;50.722;7.078;2023-04-25T14:37:35;3.90;;;2.27;;
11100;SDS011;5604;50.722;7.078;2023-04-25T14:40:04;11.23;;;2.83;;
11100;SDS011;5604;50.722;7.078;2023-04-25T14:42:33;5.43;;;2.60;;
11100;SDS011;5604;50.722;7.078;2023-04-25T14:45:02;4.70;;;2.50;;
11100;SDS011;5604;50.722;7.078;2023-04-25T14:47:30;7.57;;;2.57;;
11100;SDS011;5604;50.722;7.078;2023-04-25T14:49:59;6.27;;;2.53;;
11100;SDS011;5604;50.722;7.078;2023-04-25T14:52:30;7.67;;;2.60;;
11100;SDS011;5604;50.722;7.078;2023-04-25T14:54:58;9.77;;;2.50;;
11100;SDS011;5604;50.722;7.078;2023-04-25T14:57:31;3.37;;;2.17;;
11100;SDS011;5604;50.722;7.078;2023-04-25T14:59:59;6.50;;;2.20;;
11100;SDS011;5604;50.722;7.078;2023-04-25T15:02:29;8.00;;;5.27;;
11100;SDS011;5604;50.722;7.078;2023-04-25T15:04:58;4.53;;;2.67;;
11100;SDS011;5604;50.722;7.078;2023-04-25T15:07:27;3.27;;;1.90;;
11100;SDS011;5604;50.722;7.078;2023-04-25T15:09:56;5.17;;;2.07;;
11100;SDS011;5604;50.722;7.078;2023-04-25T15:12:25;2.80;;;1.87;;
11100;SDS011;5604;50.722;7.078;2023-04-25T15:14:54;3.07;;;1.50;;
11100;SDS011;5604;50.722;7.078;2023-04-25T15:17:23;3.40;;;1.60;;
11100;SDS011;5604;50.722;7.078;2023-04-25T15:19:51;3.50;;;1.50;;
11100;SDS011;5604;50.722;7.078;2023-04-25T15:22:21;4.40;;;1.80;;